createdAt,value
2022-12-18T00:00:18.809Z,7.75
2022-12-18T00:05:20.197Z,7.20
2022-12-18T00:10:22.208Z,6.85
2022-12-18T00:15:23.501Z,8.32
2022-12-18T00:20:26.522Z,7.53
2022-12-18T00:25:28.049Z,7.72
2022-12-18T00:30:29.414Z,8.55
2022-12-18T00:35:30.759Z,6.75
2022-12-18T00:40:32.096Z,8.77
2022-12-18T00:45:33.496Z,6.80
2022-12-18T00:50:34.937Z,7.90
2022-12-18T00:55:37.868Z,6.85
2022-12-18T01:00:39.349Z,5.68
2022-12-18T01:05:41.780Z,7.57
2022-12-18T01:10:43.161Z,8.10
2022-12-18T01:15:51.233Z,6.60
2022-12-18T01:20:52.534Z,6.00
2022-12-18T01:25:53.825Z,6.05
2022-12-18T01:30:55.125Z,8.13
2022-12-18T01:35:56.428Z,7.10
2022-12-18T01:41:01.462Z,6.68
2022-12-18T01:46:02.817Z,7.50
2022-12-18T01:51:06.212Z,6.45
2022-12-18T01:56:07.693Z,7.43
2022-12-18T02:01:09.741Z,6.30
2022-12-18T02:06:14.840Z,7.53
2022-12-18T02:11:20.973Z,8.73
2022-12-18T02:16:40.241Z,7.10
2022-12-18T02:21:47.106Z,8.43
2022-12-18T02:26:53.063Z,5.45
2022-12-18T02:36:59.449Z,6.43
2022-12-18T02:42:08.521Z,6.78
2022-12-18T02:47:11.238Z,5.53
2022-12-18T02:52:19.359Z,5.88
2022-12-18T02:57:25.610Z,6.33
2022-12-18T03:02:30.161Z,8.07
2022-12-18T03:07:51.967Z,6.05
2022-12-18T03:13:01.688Z,6.68
2022-12-18T03:23:10.836Z,6.78
2022-12-18T03:28:18.361Z,8.05
2022-12-18T03:33:26.502Z,5.95
2022-12-18T03:38:29.597Z,7.18
2022-12-18T03:43:49.462Z,6.20
2022-12-18T03:48:53.817Z,6.57
2022-12-18T03:53:56.322Z,6.25
2022-12-18T03:59:03.869Z,6.65
2022-12-18T04:04:07.973Z,7.47
2022-12-18T04:09:12.961Z,7.93
2022-12-18T04:14:18.742Z,7.55
2022-12-18T04:19:24.068Z,6.95
2022-12-18T04:24:27.450Z,6.15
2022-12-18T04:29:39.287Z,5.60
2022-12-18T04:34:40.727Z,6.07
2022-12-18T04:39:42.328Z,6.57
2022-12-18T04:44:50.730Z,5.40
2022-12-18T04:49:52.106Z,5.72
2022-12-18T04:54:53.413Z,7.72
2022-12-18T04:59:54.924Z,5.88
2022-12-18T05:04:56.237Z,6.30
2022-12-18T05:09:57.622Z,7.22
2022-12-18T05:14:59.084Z,6.88
2022-12-18T05:20:00.396Z,6.88
2022-12-18T05:25:01.749Z,5.25
2022-12-18T05:30:03.376Z,6.68
2022-12-18T05:35:05.358Z,7.20
2022-12-18T05:40:07.131Z,6.78
2022-12-18T05:45:08.642Z,7.13
2022-12-18T05:50:10.069Z,7.35
2022-12-18T05:55:11.403Z,6.38
2022-12-18T06:00:13.143Z,5.75
2022-12-18T06:05:14.814Z,7.50
2022-12-18T06:10:16.189Z,7.13
2022-12-18T06:15:18.097Z,8.30
2022-12-18T06:20:19.784Z,7.75
2022-12-18T06:25:21.115Z,7.40
2022-12-18T06:30:22.510Z,8.05
2022-12-18T06:35:24.082Z,7.60
2022-12-18T06:40:25.416Z,6.65
2022-12-18T06:45:26.830Z,8.73
2022-12-18T06:50:28.553Z,6.47
2022-12-18T06:55:29.861Z,7.88
2022-12-18T07:00:31.380Z,7.40
2022-12-18T07:05:32.849Z,9.23
2022-12-18T07:10:34.163Z,7.32
2022-12-18T07:15:35.574Z,8.57
2022-12-18T07:20:37.254Z,7.30
2022-12-18T07:25:38.642Z,8.15
2022-12-18T07:30:39.975Z,7.95
2022-12-18T07:35:41.281Z,7.90
2022-12-18T07:40:42.603Z,6.57
2022-12-18T07:45:44.528Z,7.63
2022-12-18T07:50:45.964Z,9.88
2022-12-18T07:56:25.056Z,8.30
2022-12-18T08:01:10.017Z,7.10
2022-12-18T08:06:12.934Z,9.18
2022-12-18T08:11:14.287Z,8.07
2022-12-18T08:16:15.669Z,8.10
2022-12-18T08:21:19.225Z,7.40
2022-12-18T08:26:23.810Z,7.70
2022-12-18T08:31:25.903Z,7.50
2022-12-18T08:36:27.514Z,8.23
2022-12-18T08:41:28.833Z,7.32
2022-12-18T08:46:34.327Z,8.48
2022-12-18T08:51:36.776Z,7.97
2022-12-18T08:56:38.187Z,8.07
2022-12-18T09:01:39.708Z,7.85
2022-12-18T09:06:41.214Z,7.50
2022-12-18T09:11:42.621Z,7.25
2022-12-18T09:16:44.064Z,7.93
2022-12-18T09:21:48.288Z,7.68
2022-12-18T09:26:57.568Z,8.73
2022-12-18T09:31:59.479Z,8.27
2022-12-18T09:37:00.873Z,7.93
2022-12-18T09:42:02.352Z,7.22
2022-12-18T09:47:10.369Z,9.40
2022-12-18T09:52:18.510Z,8.13
2022-12-18T09:57:22.501Z,7.77
2022-12-18T10:02:25.583Z,7.03
2022-12-18T10:07:36.226Z,6.95
2022-12-18T10:12:44.347Z,7.47
2022-12-18T10:17:54.511Z,8.90
2022-12-18T10:23:09.138Z,9.20
2022-12-18T10:28:14.477Z,6.90
2022-12-18T10:33:17.178Z,6.55
2022-12-18T10:38:18.764Z,7.32
2022-12-18T10:43:21.407Z,7.32
2022-12-18T10:48:23.099Z,7.20
2022-12-18T10:53:28.767Z,7.65
2022-12-18T10:58:37.519Z,8.20
2022-12-18T11:03:38.946Z,8.00
2022-12-18T11:08:41.607Z,7.95
2022-12-18T11:13:49.567Z,7.85
2022-12-18T11:18:50.915Z,7.47
2022-12-18T11:23:53.138Z,7.93
2022-12-18T11:29:08.511Z,7.25
2022-12-18T11:34:28.463Z,7.45
2022-12-18T11:39:30.205Z,6.88
2022-12-18T11:44:37.621Z,8.68
2022-12-18T11:49:41.377Z,8.07
2022-12-18T11:54:42.815Z,8.38
2022-12-18T12:00:02.961Z,7.75
2022-12-18T12:10:31.474Z,8.23
2022-12-18T12:15:47.840Z,8.75
2022-12-18T12:21:12.929Z,9.07
2022-12-18T12:26:27.192Z,8.18
2022-12-18T12:31:28.531Z,8.27
2022-12-18T12:36:41.887Z,8.32
2022-12-18T12:42:02.244Z,8.73
2022-12-18T12:47:10.384Z,7.97
2022-12-18T12:52:14.796Z,9.48
2022-12-18T12:57:36.874Z,8.27
2022-12-18T13:02:53.890Z,8.57
2022-12-18T13:07:58.576Z,8.23
2022-12-18T13:13:03.747Z,11.27
2022-12-18T13:18:11.043Z,9.85
2022-12-18T13:23:24.701Z,9.63
2022-12-18T13:28:44.510Z,8.45
2022-12-18T13:34:16.970Z,9.15
2022-12-18T13:39:34.884Z,9.95
2022-12-18T13:44:40.866Z,9.05
2022-12-18T13:49:44.355Z,9.07
2022-12-18T13:54:47.978Z,7.97
2022-12-18T13:59:49.353Z,9.88
2022-12-18T14:04:51.515Z,9.68
2022-12-18T14:10:01.871Z,8.57
2022-12-18T14:15:24.102Z,9.27
2022-12-18T14:20:26.388Z,8.70
2022-12-18T14:25:28.615Z,7.35
2022-12-18T14:30:37.285Z,10.32
2022-12-18T14:35:40.324Z,11.23
2022-12-18T14:40:41.675Z,8.52
2022-12-18T14:45:45.327Z,9.00
2022-12-18T14:50:56.588Z,9.60
2022-12-18T14:55:57.939Z,9.90
2022-12-18T15:00:59.401Z,9.45
2022-12-18T15:06:16.313Z,9.68
2022-12-18T15:11:27.259Z,9.68
2022-12-18T15:16:28.769Z,9.20
2022-12-18T15:21:32.490Z,10.18
2022-12-18T15:26:37.074Z,10.77
2022-12-18T15:31:38.714Z,8.40
2022-12-18T15:36:40.232Z,8.52
2022-12-18T15:42:02.630Z,10.30
2022-12-18T15:47:04.176Z,9.35
2022-12-18T15:52:05.816Z,9.75
2022-12-18T15:57:26.202Z,10.73
2022-12-18T16:02:29.287Z,9.32
2022-12-18T16:07:31.105Z,10.68
2022-12-18T16:12:32.550Z,10.57
2022-12-18T16:17:34.178Z,10.07
2022-12-18T16:22:35.493Z,10.57
2022-12-18T16:27:37.295Z,9.95
2022-12-18T16:32:38.635Z,9.82
2022-12-18T16:37:40.477Z,9.63
2022-12-18T16:42:42.699Z,11.48
2022-12-18T16:47:44.540Z,9.88
2022-12-18T16:52:45.934Z,9.68
2022-12-18T16:57:47.237Z,11.52
2022-12-18T17:02:48.821Z,9.73
2022-12-18T17:07:50.251Z,11.13
2022-12-18T17:12:51.559Z,11.38
2022-12-18T17:17:52.875Z,10.50
2022-12-18T17:22:54.988Z,11.55
2022-12-18T17:28:00.485Z,10.23
2022-12-18T17:33:01.843Z,11.68
2022-12-18T17:38:03.182Z,11.60
2022-12-18T17:43:04.502Z,11.40
2022-12-18T17:48:06.584Z,10.05
2022-12-18T17:53:08.410Z,12.98
2022-12-18T17:58:09.883Z,12.25
2022-12-18T18:03:11.432Z,15.52
2022-12-18T18:08:13.391Z,11.38
2022-12-18T18:13:43.382Z,12.15
2022-12-18T18:18:47.877Z,12.55
2022-12-18T18:23:49.200Z,11.90
2022-12-18T18:28:53.962Z,12.38
2022-12-18T18:33:56.130Z,11.68
2022-12-18T18:39:01.111Z,12.05
2022-12-18T18:44:02.441Z,11.40
2022-12-18T18:49:05.498Z,13.02
2022-12-18T18:54:06.902Z,11.45
2022-12-18T18:59:08.210Z,13.80
2022-12-18T19:04:09.632Z,12.93
2022-12-18T19:09:10.995Z,12.88
2022-12-18T19:14:13.186Z,12.77
2022-12-18T19:19:14.802Z,11.85
2022-12-18T19:24:16.400Z,11.30
2022-12-18T19:29:18.161Z,13.68
2022-12-18T19:34:19.611Z,14.48
2022-12-18T19:39:20.958Z,14.50
2022-12-18T19:44:22.290Z,13.55
2022-12-18T19:49:23.611Z,12.77
2022-12-18T19:54:25.710Z,14.05
2022-12-18T19:59:27.898Z,13.50
2022-12-18T20:04:29.335Z,12.65
2022-12-18T20:09:30.727Z,13.82
2022-12-18T20:14:32.533Z,13.43
2022-12-18T20:20:45.818Z,12.25
2022-12-18T20:24:55.160Z,15.18
2022-12-18T20:29:57.492Z,14.93
2022-12-18T20:34:59.566Z,14.43
2022-12-18T20:40:05.778Z,14.85
2022-12-18T20:45:07.853Z,14.68
2022-12-18T20:50:09.278Z,13.10
2022-12-18T20:55:10.627Z,14.52
2022-12-18T21:00:12.330Z,14.48
2022-12-18T21:05:14.763Z,14.05
2022-12-18T21:10:16.160Z,12.48
2022-12-18T21:15:17.929Z,13.18
2022-12-18T21:20:19.418Z,13.15
2022-12-18T21:25:21.017Z,11.85
2022-12-18T21:30:22.339Z,12.70
2022-12-18T21:35:24.538Z,12.60
2022-12-18T21:40:28.183Z,14.35
2022-12-18T21:45:29.613Z,13.27
2022-12-18T21:50:33.699Z,13.27
2022-12-18T21:55:35.013Z,14.32
2022-12-18T22:00:36.397Z,15.02
2022-12-18T22:05:37.699Z,14.27
2022-12-18T22:10:39.081Z,13.70
2022-12-18T22:15:40.487Z,15.23
2022-12-18T22:20:41.839Z,14.35
2022-12-18T22:25:43.263Z,16.45
2022-12-18T22:30:44.607Z,14.38
2022-12-18T22:35:45.963Z,14.60
2022-12-18T22:40:47.278Z,13.23
2022-12-18T22:45:48.971Z,14.70
2022-12-18T22:50:50.953Z,14.27
2022-12-18T22:56:00.244Z,14.77
2022-12-18T23:01:01.562Z,13.25
2022-12-18T23:06:04.430Z,15.85
2022-12-18T23:11:06.138Z,14.50
2022-12-18T23:16:09.187Z,16.27
2022-12-18T23:21:14.780Z,14.15
2022-12-18T23:26:18.839Z,14.15
2022-12-18T23:31:23.396Z,14.68
2022-12-18T23:36:24.939Z,14.32
2022-12-18T23:41:27.346Z,15.32
2022-12-18T23:46:33.184Z,14.23
2022-12-18T23:51:34.540Z,15.13
2022-12-18T23:56:37.611Z,14.95
